Sunday, April 20, 2014
13:18 UTC
  |  Log In   |  Register Free
Airport Search:

Yellowstone Regional Airport
(KCOD)

Yellowstone Regional Airport Diagram
No Airport Diagram Available

FAA data valid effective April 3, 2014 until May 29, 2014 (unless otherwise noted).

 
 
 
 
 
 
 
 
 
 
 
 
 
 

Current Aviation Weather for Yellowstone Regional Airport (KCOD)

The most recent METAR observation for KCOD was updated at: 1255 UTC
METAR Summary (Translated METAR)
KCOD
201255Z 21003KT 10SM CLR 09/M03 A2996 RMK AO1
KGEY
(40.3 nm SE from KCOD)
201253Z AUTO 00000KT 10SM CLR 04/M01 A2996 RMK AO2 SLP135 T00391006
TAF Summary (Translated TAF)
KCOD
201120Z 2012/2112 VRB06KT P6SM SCT090 BKN250 FM201500 01011KT P6SM BKN090 FM202000 01010KT P6SM FEW100 SCT250 FM210100 VRB06KT P6SM FEW250 AMD LTD TO CLD VIS AND WIND
  Airport Weather Conditions for KCOD

 Current Weather at COD
48° F
Fair
Southwest winds at 3.5 mph
COD NOAA Radar

Pressure: 29.96 in
Humidity: 43%
Wind: Southwest at 3.5 MPH (3 KT)
Dew Point: 26.6°F
Visibility: 10.00 mi


Airport Weather Forecast for KCOD

Translated METAR and TAF for KCOD
Translated METAR for KCOD (1318 UTC 20 April 2014)
found at http://aviationweather.gov/adds/metars/
 
METAR text: KCOD 201315Z 24003KT 10SM CLR 09/M03 A2997 RMK AO1
Conditions at: KCOD (CODY , WY, US) observed 1315 UTC 20 April 2014
Temperature: 9.0°C (48°F)
Dewpoint: -3.0°C (27°F) [RH = 43%]
Pressure (altimeter): 29.97 inches Hg (1015.0 mb)
Winds: from the WSW (240 degrees) at 3 MPH (3 knots; 1.6 m/s)
Visibility: 10 or more miles (16+ km)
Ceiling: at least 12,000 feet AGL
Clouds: sky clear below 12,000 feet AGL
Weather: no significant weather observed at this time
Translated TAF for KCOD
Forecast for: KCOD (CODY , WY, US)
TAF Text: KCOD 201120Z 2012/2112 VRB06KT P6SM SCT090 BKN250
Forecast period: 1200 to 1500 UTC 20 April 2014
Forecast type: FROM: standard forecast or significant change
Winds: variable direction winds at 7 MPH (6 knots; 3.1 m/s)
Visibility: 6 or more miles (10+ km)
Ceiling: 25000 feet AGL
Clouds: scattered clouds at 9000 feet AGL
broken clouds at 25000 feet AGL
Weather: no significant weather forecast for this period
TAF Text: FM201500 01011KT P6SM BKN090
Forecast period: 1500 to 2000 UTC 20 April 2014
Forecast type: FROM: standard forecast or significant change
Winds: from the N (10 degrees) at 13 MPH (11 knots; 5.7 m/s)
Visibility: 6 or more miles (10+ km)
Ceiling: 9000 feet AGL
Clouds: broken clouds at 9000 feet AGL
Weather: no significant weather forecast for this period
TAF Text: FM202000 01010KT P6SM FEW100 SCT250
Forecast period: 2000 UTC 20 April 2014 to 0100 UTC 21 April 2014
Forecast type: FROM: standard forecast or significant change
Winds: from the N (10 degrees) at 12 MPH (10 knots; 5.2 m/s)
Visibility: 6 or more miles (10+ km)
Clouds: few clouds at 10000 feet AGL
scattered clouds at 25000 feet AGL
Weather: no significant weather forecast for this period
TAF Text: FM210100 VRB06KT P6SM FEW250 AMD LTD TO CLD VIS AND WIND
Forecast period: 0100 to 1200 UTC 21 April 2014
Forecast type: FROM: standard forecast or significant change
Winds: variable direction winds at 7 MPH (6 knots; 3.1 m/s)
Visibility: 6 or more miles (10+ km)
Clouds: few clouds at 25000 feet AGL
Weather: no significant weather forecast for this period

Find All Airport Services Find A Hotel Find A Rental Car Find A Golf Course Find A Restaurant $100 Hamburger



FBO's on the Field
FBO Company Facility Photos Services Transportation Aviation Fuel Prices: Prices include tax
Catering Weather Repair Courtesy Rental Type 100LL JetA JetA+ MOGAS 8087
 
Choice Aviation, LLC

This FBO has not yet been rated
FS:Avfuel
Last Updated: Mar-13
Login to update fuel prices
SS:
Contact Choice Aviation, LLCMore FBO Information
 
Spirit MTN Aviation

This FBO has not yet been rated
FS:Phillips66
Last Updated: Apr-18
Login to update fuel prices
SS:
Contact Spirit MTN AviationMore FBO Information
 
Add another FBO Facility Photos Catering Weather Repair Courtesy Rental Type 100LL JetA JetA+ MOGAS 8087
Services Transportation Aviation Fuel Prices: Prices include tax


GlobalAir.com Airport Resource Center model-print
model-print
model-print
model-print